Terminal Aerodrome Forecast
Issued by NWS Omaha/Valley, NE

Home | Current Version | Previous Version | Text Only | Print | Product List | Glossary On
Versions: 1 2 3 4 5 6 7 8 9 10 11 12 13 14 15 16 17 18 19 20 21 22 23 24 25 26 27 28 29 30 31 32 33 34 35 36 37 38 39 40 41 42 43 44 45 46
000
FTUS43 KOAX 312320
TAFOMA
TAF
KOMA 312320Z 0100/0124 14009KT 1 1/2SM -SN BR OVC007
      TEMPO 0100/0104 3/4SM -SN OVC004
     FM010400 08007KT 1 1/2SM -SN OVC004
      TEMPO 0104/0108 1/2SM SN OVC004
     FM011200 01018G27KT 1 1/2SM -SN OVC007
     FM011400 35022G35KT 1SM -SN BLSN OVC005
     FM012100 34015G25KT 5SM -SN BLSN OVC012=

USA.gov is the U.S. government's official web portal to all federal, state and local government web resources and services.